createdAt,value
2019-05-19T00:01:55.431Z,94349.41
2019-05-19T00:04:26.916Z,94357.59
2019-05-19T00:06:58.988Z,94352.27
2019-05-19T00:09:30.795Z,94364.71
2019-05-19T00:12:03.191Z,94369.33
2019-05-19T00:14:34.606Z,94362.73
2019-05-19T00:17:05.992Z,94370.40
2019-05-19T00:19:38.593Z,94372.62
2019-05-19T00:22:10.283Z,94370.23
2019-05-19T00:24:41.764Z,94371.01
2019-05-19T00:27:13.465Z,94373.53
2019-05-19T00:29:45.510Z,94368.36
2019-05-19T00:32:17.412Z,94371.23
2019-05-19T00:34:49.167Z,94364.82
2019-05-19T00:37:21.010Z,94375.84
2019-05-19T00:39:52.813Z,94379.72
2019-05-19T00:42:24.355Z,94376.36
2019-05-19T00:44:56.229Z,94372.73
2019-05-19T00:47:27.829Z,94372.02
2019-05-19T00:49:59.744Z,94376.28
2019-05-19T00:52:31.468Z,94364.85
2019-05-19T00:55:03.073Z,94377.59
2019-05-19T00:57:35.266Z,94370.19
2019-05-19T01:00:08.070Z,94365.92
2019-05-19T01:02:40.033Z,94369.69
2019-05-19T01:05:13.900Z,94364.95
2019-05-19T01:07:45.181Z,94355.91
2019-05-19T01:10:17.096Z,94362.03
2019-05-19T01:12:48.688Z,94366.56
2019-05-19T01:15:21.886Z,94357.48
2019-05-19T01:17:54.557Z,94362.34
2019-05-19T01:20:26.554Z,94367.21
2019-05-19T01:22:58.351Z,94368.83
2019-05-19T01:25:30.346Z,94362.41
2019-05-19T01:28:02.228Z,94354.67
2019-05-19T01:30:33.911Z,94357.14
2019-05-19T01:33:05.864Z,94361.20
2019-05-19T01:35:37.313Z,94360.94
2019-05-19T01:38:09.087Z,94355.93
2019-05-19T01:40:40.597Z,94358.58
2019-05-19T01:43:12.156Z,94353.50
2019-05-19T01:45:43.914Z,94357.78
2019-05-19T01:48:15.730Z,94355.67
2019-05-19T01:50:47.418Z,94352.70
2019-05-19T01:53:19.291Z,94350.07
2019-05-19T01:55:50.885Z,94351.95
2019-05-19T01:58:22.556Z,94347.69
2019-05-19T02:00:54.501Z,94346.66
2019-05-19T02:03:26.061Z,94349.12
2019-05-19T02:05:57.803Z,94345.98
2019-05-19T02:08:29.484Z,94351.63
2019-05-19T02:11:01.158Z,94348.14
2019-05-19T02:13:32.804Z,94347.63
2019-05-19T02:16:04.507Z,94347.05
2019-05-19T02:18:36.367Z,94350.55
2019-05-19T02:21:08.158Z,94346.03
2019-05-19T02:23:39.750Z,94355.87
2019-05-19T02:26:11.354Z,94357.20
2019-05-19T02:28:42.989Z,94362.47
2019-05-19T02:31:14.417Z,94359.25
2019-05-19T02:33:46.162Z,94363.77
2019-05-19T02:36:17.758Z,94357.94
2019-05-19T02:38:49.659Z,94356.34
2019-05-19T02:41:23.406Z,94361.12
2019-05-19T02:43:56.830Z,94366.72
2019-05-19T02:46:30.165Z,94364.58
2019-05-19T02:49:03.354Z,94367.25
2019-05-19T02:51:34.765Z,94364.12
2019-05-19T02:54:07.542Z,94370.75
2019-05-19T02:56:39.715Z,94366.19
2019-05-19T02:59:11.921Z,94366.77
2019-05-19T03:02:04.164Z,94364.62
2019-05-19T03:04:35.607Z,94367.55
2019-05-19T03:07:06.931Z,94365.16
2019-05-19T03:09:39.238Z,94367.78
2019-05-19T03:12:10.908Z,94370.70
2019-05-19T03:14:42.596Z,94365.70
2019-05-19T03:17:14.466Z,94369.69
2019-05-19T03:19:46.216Z,94364.10
2019-05-19T03:22:17.972Z,94363.58
2019-05-19T03:24:49.529Z,94375.53
2019-05-19T03:27:21.125Z,94374.73
2019-05-19T03:29:56.984Z,94380.06
2019-05-19T03:32:43.853Z,94378.73
2019-05-19T03:35:15.725Z,94382.19
2019-05-19T03:37:47.493Z,94379.00
2019-05-19T03:40:22.193Z,94376.35
2019-05-19T03:42:54.312Z,94384.30
2019-05-19T03:45:26.146Z,94384.84
2019-05-19T03:47:57.964Z,94385.91
2019-05-19T03:50:29.499Z,94387.50
2019-05-19T03:53:03.522Z,94384.05
2019-05-19T03:55:35.390Z,94382.17
2019-05-19T03:58:06.870Z,94387.23
2019-05-19T04:00:38.508Z,94378.99
2019-05-19T04:03:10.558Z,94384.56
2019-05-19T04:05:42.324Z,94397.03
2019-05-19T04:08:13.703Z,94393.28
2019-05-19T04:10:45.448Z,94392.75
2019-05-19T04:13:17.275Z,94395.65
2019-05-19T04:15:49.018Z,94399.67
2019-05-19T04:18:20.745Z,94400.50
2019-05-19T04:20:52.477Z,94403.38
2019-05-19T04:23:24.101Z,94410.00
2019-05-19T04:25:55.674Z,94406.80
2019-05-19T04:28:27.661Z,94404.13
2019-05-19T04:30:59.372Z,94402.49
2019-05-19T04:33:30.987Z,94406.45
2019-05-19T04:36:02.535Z,94404.09
2019-05-19T04:38:34.453Z,94400.58
2019-05-19T04:41:05.905Z,94403.99
2019-05-19T04:43:37.525Z,94406.86
2019-05-19T04:46:09.092Z,94402.68
2019-05-19T04:48:40.782Z,94408.73
2019-05-19T04:51:12.542Z,94406.17
2019-05-19T04:53:44.046Z,94407.64
2019-05-19T04:56:19.517Z,94414.31
2019-05-19T04:58:49.185Z,94408.09
2019-05-19T05:01:20.750Z,94405.63
2019-05-19T05:03:52.569Z,94410.94
2019-05-19T05:06:24.365Z,94411.80
2019-05-19T05:08:56.248Z,94407.20
2019-05-19T05:11:28.093Z,94406.41
2019-05-19T05:14:00.243Z,94410.09
2019-05-19T05:16:31.964Z,94407.45
2019-05-19T05:19:03.867Z,94408.86
2019-05-19T05:21:35.829Z,94409.92
2019-05-19T05:24:07.646Z,94405.32
2019-05-19T05:26:39.317Z,94401.90
2019-05-19T05:29:11.936Z,94411.06
2019-05-19T05:31:43.961Z,94401.27
2019-05-19T05:34:15.878Z,94405.28
2019-05-19T05:36:48.125Z,94398.63
2019-05-19T05:39:20.161Z,94399.50
2019-05-19T05:41:51.779Z,94393.23
2019-05-19T05:44:23.515Z,94398.03
2019-05-19T05:46:55.071Z,94401.41
2019-05-19T05:49:26.519Z,94401.13
2019-05-19T05:51:58.044Z,94399.07
2019-05-19T05:54:29.774Z,94402.91
2019-05-19T05:57:01.364Z,94395.73
2019-05-19T05:59:33.198Z,94405.08
2019-05-19T06:02:04.823Z,94400.80
2019-05-19T06:04:37.656Z,94398.12
2019-05-19T06:07:09.294Z,94401.48
2019-05-19T06:09:41.183Z,94406.09
2019-05-19T06:12:12.802Z,94401.48
2019-05-19T06:14:44.395Z,94407.55
2019-05-19T06:17:16.140Z,94406.77
2019-05-19T06:19:47.904Z,94406.02
2019-05-19T06:22:19.506Z,94402.83
2019-05-19T06:24:51.762Z,94399.58
2019-05-19T06:27:23.323Z,94401.69
2019-05-19T06:29:55.189Z,94408.18
2019-05-19T06:32:35.832Z,94405.72
2019-05-19T06:35:08.478Z,94408.98
2019-05-19T06:37:40.137Z,94408.24
2019-05-19T06:40:11.961Z,94405.25
2019-05-19T06:42:43.844Z,94399.23
2019-05-19T06:45:17.157Z,94396.97
2019-05-19T06:47:49.150Z,94378.53
2019-05-19T06:50:21.003Z,94379.95
2019-05-19T06:52:52.751Z,94371.36
2019-05-19T06:55:24.546Z,94370.99
2019-05-19T06:57:57.179Z,94382.19
2019-05-19T07:00:28.746Z,94372.35
2019-05-19T07:03:00.536Z,94373.27
2019-05-19T07:05:32.481Z,94370.22
2019-05-19T07:08:04.126Z,94378.27
2019-05-19T07:10:36.001Z,94370.27
2019-05-19T07:13:07.902Z,94371.45
2019-05-19T07:15:39.477Z,94372.79
2019-05-19T07:18:12.312Z,94378.27
2019-05-19T07:20:44.919Z,94376.11
2019-05-19T07:23:27.916Z,94375.66
2019-05-19T07:25:50.748Z,94370.57
2019-05-19T07:28:22.634Z,94375.00
2019-05-19T07:30:54.483Z,94371.10
2019-05-19T07:33:26.161Z,94367.77
2019-05-19T07:35:57.832Z,94372.22
2019-05-19T07:38:29.592Z,94369.28
2019-05-19T07:41:01.344Z,94359.30
2019-05-19T07:43:34.152Z,94353.12
2019-05-19T07:46:06.260Z,94355.08
2019-05-19T07:48:38.439Z,94355.46
2019-05-19T07:51:10.136Z,94349.77
2019-05-19T07:53:43.254Z,94338.73
2019-05-19T07:56:15.242Z,94349.60
2019-05-19T07:58:46.604Z,94349.80
2019-05-19T08:01:18.304Z,94346.05
2019-05-19T08:03:49.987Z,94341.55
2019-05-19T08:06:21.923Z,94342.94
2019-05-19T08:08:53.413Z,94348.18
2019-05-19T08:11:25.656Z,94336.63
2019-05-19T08:13:57.644Z,94340.28
2019-05-19T08:16:29.516Z,94336.31
2019-05-19T08:19:01.276Z,94341.42
2019-05-19T08:21:33.944Z,94335.97
2019-05-19T08:24:05.449Z,94332.95
2019-05-19T08:26:37.206Z,94334.59
2019-05-19T08:29:10.359Z,94327.83
2019-05-19T08:31:42.099Z,94323.30
2019-05-19T08:34:13.701Z,94321.18
2019-05-19T08:36:45.573Z,94318.77
2019-05-19T08:39:18.449Z,94310.95
2019-05-19T08:41:51.085Z,94304.11
2019-05-19T08:44:22.860Z,94305.50
2019-05-19T08:46:54.529Z,94305.36
2019-05-19T08:49:26.237Z,94310.48
2019-05-19T08:51:57.872Z,94319.36
2019-05-19T08:54:29.521Z,94325.40
2019-05-19T08:57:01.283Z,94316.26
2019-05-19T08:59:33.176Z,94318.88
2019-05-19T09:02:04.894Z,94317.12
2019-05-19T09:04:36.395Z,94312.27
2019-05-19T09:07:08.329Z,94311.30
2019-05-19T09:09:39.935Z,94310.48
2019-05-19T09:12:11.630Z,94317.29
2019-05-19T09:14:43.284Z,94313.95
2019-05-19T09:17:15.232Z,94315.08
2019-05-19T09:19:46.866Z,94315.66
2019-05-19T09:22:18.807Z,94306.16
2019-05-19T09:24:50.358Z,94304.14
2019-05-19T09:27:21.944Z,94305.97
2019-05-19T09:29:53.795Z,94294.22
2019-05-19T09:32:26.249Z,94299.16
2019-05-19T09:34:57.883Z,94298.02
2019-05-19T09:37:29.655Z,94290.39
2019-05-19T09:40:01.369Z,94286.66
2019-05-19T09:42:34.376Z,94281.98
2019-05-19T09:45:06.596Z,94282.17
2019-05-19T09:47:38.465Z,94284.41
2019-05-19T09:50:10.228Z,94278.53
2019-05-19T09:52:42.008Z,94276.61
2019-05-19T09:55:13.837Z,94276.97
2019-05-19T09:57:45.542Z,94267.62
2019-05-19T10:00:18.958Z,94265.98
2019-05-19T10:02:50.766Z,94264.61
2019-05-19T10:05:22.926Z,94266.70
2019-05-19T10:07:54.623Z,94258.99
2019-05-19T10:11:00.509Z,94252.70
2019-05-19T10:13:32.467Z,94246.41
2019-05-19T10:16:04.441Z,94242.37
2019-05-19T10:18:36.486Z,94245.69
2019-05-19T10:21:07.976Z,94233.28
2019-05-19T10:23:40.220Z,94228.98
2019-05-19T10:26:11.817Z,94226.78
2019-05-19T10:28:43.382Z,94231.23
2019-05-19T10:31:15.261Z,94224.76
2019-05-19T10:33:46.987Z,94221.38
2019-05-19T10:36:19.138Z,94226.11
2019-05-19T10:38:50.779Z,94211.91
2019-05-19T10:41:22.352Z,94215.36
2019-05-19T10:44:01.297Z,94208.03
2019-05-19T10:46:32.873Z,94197.91
2019-05-19T10:49:04.524Z,94200.33
2019-05-19T10:51:37.416Z,94197.29
2019-05-19T10:54:09.081Z,94196.86
2019-05-19T10:56:41.974Z,94187.41
2019-05-19T10:59:14.176Z,94190.81
2019-05-19T11:01:46.088Z,94192.75
2019-05-19T11:04:17.804Z,94188.16
2019-05-19T11:06:49.286Z,94185.37
2019-05-19T11:09:20.839Z,94185.75
2019-05-19T11:11:52.830Z,94185.75
2019-05-19T11:14:24.783Z,94181.67
2019-05-19T11:16:56.457Z,94166.61
2019-05-19T11:19:28.124Z,94179.00
2019-05-19T11:22:00.984Z,94176.27
2019-05-19T11:24:32.954Z,94178.75
2019-05-19T11:27:04.753Z,94176.85
2019-05-19T11:29:36.635Z,94176.85
2019-05-19T11:32:08.661Z,94171.55
2019-05-19T11:34:40.588Z,94167.97
2019-05-19T11:37:13.165Z,94164.10
2019-05-19T11:39:45.036Z,94156.61
2019-05-19T11:42:16.750Z,94156.37
2019-05-19T11:44:48.544Z,94151.39
2019-05-19T11:47:20.326Z,94161.48
2019-05-19T11:49:52.045Z,94163.78
2019-05-19T11:52:23.855Z,94159.84
2019-05-19T11:54:55.569Z,94155.69
2019-05-19T11:57:27.667Z,94155.69
2019-05-19T11:59:59.300Z,94155.03
2019-05-19T12:02:30.909Z,94150.44
2019-05-19T12:05:02.541Z,94141.13
2019-05-19T12:07:34.479Z,94140.77
2019-05-19T12:10:06.084Z,94133.61
2019-05-19T12:12:38.221Z,94132.23
2019-05-19T12:15:10.712Z,94130.84
2019-05-19T12:17:42.587Z,94119.75
2019-05-19T12:20:14.415Z,94123.98
2019-05-19T12:22:46.168Z,94125.55
2019-05-19T12:25:17.871Z,94116.87
2019-05-19T12:27:49.784Z,94119.08
2019-05-19T12:30:21.873Z,94120.08
2019-05-19T12:32:53.607Z,94116.37
2019-05-19T12:35:25.296Z,94113.78
2019-05-19T12:37:56.983Z,94101.70
2019-05-19T12:40:28.727Z,94094.48
2019-05-19T12:43:00.515Z,94098.49
2019-05-19T12:45:32.295Z,94091.32
2019-05-19T12:48:03.872Z,94090.58
2019-05-19T12:50:35.473Z,94090.18
2019-05-19T12:53:08.075Z,94097.97
2019-05-19T12:55:39.685Z,94096.63
2019-05-19T12:58:11.528Z,94090.05
2019-05-19T13:00:43.217Z,94091.55
2019-05-19T13:03:16.325Z,94082.13
2019-05-19T13:05:48.037Z,94082.13
2019-05-19T13:08:20.017Z,94091.84
2019-05-19T13:10:51.699Z,94088.92
2019-05-19T13:13:23.677Z,94082.33
2019-05-19T13:15:56.530Z,94089.42
2019-05-19T13:18:28.501Z,94088.99
2019-05-19T13:21:00.129Z,94086.91
2019-05-19T13:23:31.834Z,94091.22
2019-05-19T13:26:03.739Z,94099.67
2019-05-19T13:28:35.470Z,94105.09
2019-05-19T13:31:06.910Z,94103.17
2019-05-19T13:33:38.718Z,94093.79
2019-05-19T13:36:10.390Z,94085.38
2019-05-19T13:38:42.460Z,94088.72
2019-05-19T13:41:14.090Z,94100.48
2019-05-19T13:43:46.102Z,94100.48
2019-05-19T13:46:18.063Z,94092.55
2019-05-19T13:48:49.921Z,94095.91
2019-05-19T13:51:21.961Z,94091.25
2019-05-19T13:53:53.730Z,94090.83
2019-05-19T13:56:25.241Z,94089.97
2019-05-19T13:58:56.858Z,94094.10
2019-05-19T14:01:29.137Z,94082.91
2019-05-19T14:04:01.124Z,94077.13
2019-05-19T14:06:33.322Z,94087.63
2019-05-19T14:09:05.868Z,94092.98
2019-05-19T14:11:38.075Z,94089.30
2019-05-19T14:14:09.621Z,94085.75
2019-05-19T14:16:41.231Z,94085.75
2019-05-19T14:19:13.125Z,94090.03
2019-05-19T14:21:44.862Z,94086.55
2019-05-19T14:24:16.445Z,94081.42
2019-05-19T14:26:48.225Z,94083.11
2019-05-19T14:29:20.965Z,94084.65
2019-05-19T14:31:52.714Z,94087.08
2019-05-19T14:34:24.351Z,94095.17
2019-05-19T14:36:55.932Z,94090.05
2019-05-19T14:39:27.465Z,94092.06
2019-05-19T14:42:03.093Z,94093.36
2019-05-19T14:44:35.160Z,94086.84
2019-05-19T14:47:06.899Z,94092.05
2019-05-19T14:49:38.683Z,94091.75
2019-05-19T14:52:10.275Z,94085.20
2019-05-19T14:54:42.210Z,94080.02
2019-05-19T14:57:13.983Z,94088.89
2019-05-19T14:59:45.872Z,94082.52
2019-05-19T15:02:19.931Z,94073.02
2019-05-19T15:04:51.128Z,94086.67
2019-05-19T15:07:22.806Z,94077.88
2019-05-19T15:09:54.305Z,94071.86
2019-05-19T15:12:26.078Z,94069.48
2019-05-19T15:14:58.536Z,94068.85
2019-05-19T15:17:30.556Z,94068.84
2019-05-19T15:20:02.032Z,94062.22
2019-05-19T15:22:33.687Z,94060.40
2019-05-19T15:25:05.342Z,94054.05
2019-05-19T15:27:37.484Z,94043.70
2019-05-19T15:30:13.472Z,94048.93
2019-05-19T15:32:42.881Z,94050.98
2019-05-19T15:35:15.176Z,94037.28
2019-05-19T15:37:46.704Z,94025.47
2019-05-19T15:40:18.815Z,94019.56
2019-05-19T15:42:50.721Z,94013.87
2019-05-19T15:45:22.315Z,94023.56
2019-05-19T15:47:54.047Z,94020.17
2019-05-19T15:50:25.535Z,94017.85
2019-05-19T15:52:57.299Z,94010.13
2019-05-19T15:55:28.710Z,94021.77
2019-05-19T15:58:15.738Z,94016.78
2019-05-19T16:00:33.914Z,94020.31
2019-05-19T16:03:05.760Z,94025.84
2019-05-19T16:05:37.544Z,94021.92
2019-05-19T16:08:09.404Z,94016.97
2019-05-19T16:10:41.244Z,94013.92
2019-05-19T16:13:13.327Z,94010.20
2019-05-19T16:15:45.382Z,94011.72
2019-05-19T16:18:17.480Z,94001.27
2019-05-19T16:20:49.120Z,94002.28
2019-05-19T16:23:20.836Z,94015.78
2019-05-19T16:25:52.446Z,94013.75
2019-05-19T16:28:30.902Z,94015.44
2019-05-19T16:30:57.418Z,94011.49
2019-05-19T16:33:29.127Z,94016.22
2019-05-19T16:36:00.953Z,93999.69
2019-05-19T16:38:32.871Z,94006.52
2019-05-19T16:41:04.905Z,94011.10
2019-05-19T16:43:36.959Z,94005.41
2019-05-19T16:46:08.643Z,94016.67
2019-05-19T16:48:40.505Z,94007.55
2019-05-19T16:51:12.782Z,94007.09
2019-05-19T16:53:46.878Z,94005.08
2019-05-19T16:59:07.772Z,93998.66
2019-05-19T17:01:40.051Z,93991.75
2019-05-19T17:04:12.076Z,93988.39
2019-05-19T17:06:44.414Z,94002.31
2019-05-19T17:09:17.072Z,93992.73
2019-05-19T17:11:49.593Z,93996.17
2019-05-19T17:14:22.202Z,94001.23
2019-05-19T17:16:54.875Z,93995.51
2019-05-19T17:19:27.135Z,93994.16
2019-05-19T17:21:59.695Z,93990.06
2019-05-19T17:24:31.736Z,93993.56
2019-05-19T17:27:04.169Z,93984.02
2019-05-19T17:29:36.222Z,93989.78
2019-05-19T17:32:08.715Z,93985.14
2019-05-19T17:34:41.913Z,93986.91
2019-05-19T17:37:14.053Z,93977.94
2019-05-19T17:39:46.560Z,93980.38
2019-05-19T17:42:18.763Z,93974.82
2019-05-19T17:44:50.749Z,93967.88
2019-05-19T17:47:22.846Z,93971.73
2019-05-19T17:49:54.781Z,93974.99
2019-05-19T17:52:27.143Z,93966.21
2019-05-19T17:54:59.454Z,93963.84
2019-05-19T17:57:33.072Z,93977.30
2019-05-19T18:00:05.890Z,93978.32
2019-05-19T18:02:37.027Z,93975.06
2019-05-19T18:05:09.947Z,93976.97
2019-05-19T18:07:42.285Z,93965.75
2019-05-19T18:10:14.605Z,93965.33
2019-05-19T18:12:47.279Z,93968.28
2019-05-19T18:15:19.511Z,93963.82
2019-05-19T18:17:51.715Z,93956.78
2019-05-19T18:20:24.475Z,93957.13
2019-05-19T18:22:57.041Z,93953.80
2019-05-19T18:25:30.565Z,93949.58
2019-05-19T18:28:03.061Z,93958.86
2019-05-19T18:30:36.362Z,93966.03
2019-05-19T18:33:08.545Z,93965.80
2019-05-19T18:35:40.757Z,93966.17
2019-05-19T18:38:13.176Z,93976.53
2019-05-19T18:40:45.298Z,93968.74
2019-05-19T18:43:17.411Z,93973.98
2019-05-19T18:45:49.555Z,93982.70
2019-05-19T18:48:23.413Z,93990.18
2019-05-19T18:50:56.151Z,93981.84
2019-05-19T18:53:28.906Z,93989.35
2019-05-19T18:56:01.849Z,93981.75
2019-05-19T18:58:32.875Z,93979.06
2019-05-19T19:01:05.292Z,93994.93
2019-05-19T19:03:37.346Z,93988.39
2019-05-19T19:06:09.747Z,94000.70
2019-05-19T19:08:41.935Z,93999.27
2019-05-19T19:11:14.637Z,94002.98
2019-05-19T19:13:46.965Z,93990.59
2019-05-19T19:16:19.419Z,94005.12
2019-05-19T19:18:51.591Z,94008.69
2019-05-19T19:21:23.781Z,94013.39
2019-05-19T19:23:56.024Z,94015.73
2019-05-19T19:26:28.640Z,94019.02
2019-05-19T19:29:01.025Z,94024.02
2019-05-19T19:31:46.376Z,94026.42
2019-05-19T19:34:07.062Z,94030.93
2019-05-19T19:49:44.092Z,94046.66
2019-05-19T19:52:16.643Z,94058.45
2019-05-19T19:54:49.365Z,94068.48
2019-05-19T19:57:21.912Z,94069.66
2019-05-19T19:59:54.358Z,94074.41
2019-05-19T20:02:27.204Z,94086.44
2019-05-19T20:04:59.811Z,94085.17
2019-05-19T20:07:32.661Z,94096.67
2019-05-19T20:10:05.501Z,94091.16
2019-05-19T20:12:39.038Z,94096.69
2019-05-19T20:15:15.609Z,94102.61
2019-05-19T20:17:51.001Z,94108.64
2019-05-19T20:20:24.731Z,94111.77
2019-05-19T20:22:57.133Z,94112.32
2019-05-19T20:25:30.043Z,94117.20
2019-05-19T20:28:02.540Z,94112.58
2019-05-19T20:30:36.649Z,94119.28
2019-05-19T20:33:09.677Z,94126.16
2019-05-19T20:35:42.103Z,94129.19
2019-05-19T20:38:14.653Z,94129.27
2019-05-19T20:40:47.649Z,94134.78
2019-05-19T20:43:20.141Z,94140.60
2019-05-19T20:45:53.138Z,94137.94
2019-05-19T20:48:25.812Z,94143.87
2019-05-19T20:50:58.505Z,94132.66
2019-05-19T20:53:30.811Z,94136.13
2019-05-19T20:56:03.600Z,94137.98
2019-05-19T20:58:35.692Z,94140.56
2019-05-19T21:01:08.284Z,94134.46
2019-05-19T21:03:41.352Z,94139.69
2019-05-19T21:06:12.513Z,94132.38
2019-05-19T21:08:46.264Z,94133.97
2019-05-19T21:11:19.253Z,94144.20
2019-05-19T21:13:50.625Z,94135.31
2019-05-19T21:16:23.539Z,94140.67
2019-05-19T21:19:12.827Z,94144.28
2019-05-19T21:21:46.859Z,94142.50
2019-05-19T21:24:19.811Z,94139.64
2019-05-19T21:26:51.942Z,94138.43
2019-05-19T21:29:24.530Z,94136.35
2019-05-19T21:31:57.050Z,94138.79
2019-05-19T21:34:29.934Z,94136.16
2019-05-19T21:37:02.583Z,94125.73
2019-05-19T21:39:35.365Z,94122.95
2019-05-19T21:42:08.096Z,94118.44
2019-05-19T21:44:40.778Z,94120.22
2019-05-19T21:47:14.805Z,94121.61
2019-05-19T21:49:47.443Z,94116.84
2019-05-19T21:52:20.021Z,94119.17
2019-05-19T21:54:53.048Z,94109.79
2019-05-19T21:57:24.196Z,94103.58
2019-05-19T21:59:56.990Z,94106.92
2019-05-19T22:02:29.704Z,94115.09
2019-05-19T22:05:02.132Z,94113.62
2019-05-19T22:07:58.691Z,94118.13
2019-05-19T22:10:31.472Z,94121.25
2019-05-19T22:13:04.037Z,94115.56
2019-05-19T22:15:37.591Z,94112.22
2019-05-19T22:18:10.334Z,94113.73
2019-05-19T22:20:43.050Z,94105.81
2019-05-19T22:23:15.566Z,94115.19
2019-05-19T22:25:48.527Z,94106.91
2019-05-19T22:28:21.028Z,94101.98
2019-05-19T22:30:53.563Z,94111.12
2019-05-19T22:33:26.324Z,94103.55
2019-05-19T22:35:58.934Z,94106.49
2019-05-19T22:38:31.441Z,94109.03
2019-05-19T22:41:05.013Z,94108.30
2019-05-19T22:43:37.966Z,94110.61
2019-05-19T22:46:10.630Z,94102.33
2019-05-19T22:48:43.443Z,94107.09
2019-05-19T22:51:16.071Z,94097.27
2019-05-19T22:53:49.103Z,94100.56
2019-05-19T22:56:23.036Z,94100.09
2019-05-19T22:58:55.573Z,94104.61
2019-05-19T23:01:28.523Z,94106.82
2019-05-19T23:04:01.100Z,94103.88
2019-05-19T23:06:33.971Z,94108.34
2019-05-19T23:09:07.724Z,94115.18
2019-05-19T23:11:40.151Z,94113.15
2019-05-19T23:14:12.234Z,94108.66
2019-05-19T23:16:44.689Z,94106.05
2019-05-19T23:19:17.252Z,94105.21
2019-05-19T23:21:49.963Z,94104.17
2019-05-19T23:24:22.477Z,94102.88
2019-05-19T23:26:55.276Z,94106.42
2019-05-19T23:29:28.159Z,94104.56
2019-05-19T23:32:07.209Z,94103.94
2019-05-19T23:34:35.326Z,94104.91
2019-05-19T23:37:07.793Z,94100.67
2019-05-19T23:39:40.382Z,94102.05
2019-05-19T23:42:12.306Z,94106.74
2019-05-19T23:44:44.822Z,94122.48
2019-05-19T23:47:17.636Z,94117.17
2019-05-19T23:49:50.439Z,94115.70
2019-05-19T23:52:22.731Z,94122.64
2019-05-19T23:54:55.626Z,94126.89
2019-05-19T23:57:28.235Z,94111.58
